createdAt,value
2022-12-24T00:02:37.866Z,3.03
2022-12-24T00:05:20.557Z,2.92
2022-12-24T00:08:04.720Z,3.00
2022-12-24T00:10:51.402Z,2.83
2022-12-24T00:13:34.111Z,2.75
2022-12-24T00:16:17.134Z,3.40
2022-12-24T00:18:59.801Z,3.15
2022-12-24T00:21:42.465Z,3.05
2022-12-24T00:24:26.481Z,3.17
2022-12-24T00:27:09.271Z,3.42
2022-12-24T00:29:51.933Z,3.13
2022-12-24T00:32:34.568Z,3.53
2022-12-24T00:35:17.386Z,3.88
2022-12-24T00:38:00.124Z,3.72
2022-12-24T00:40:44.037Z,3.67
2022-12-24T00:43:26.747Z,3.88
2022-12-24T00:46:09.447Z,4.00
2022-12-24T00:48:52.276Z,3.90
2022-12-24T00:51:35.518Z,4.20
2022-12-24T00:54:18.211Z,3.97
2022-12-24T00:57:02.261Z,4.28
2022-12-24T00:59:44.867Z,4.40
2022-12-24T01:02:28.010Z,4.53
2022-12-24T01:05:11.583Z,4.50
2022-12-24T01:07:54.579Z,4.57
2022-12-24T01:10:37.258Z,4.68
2022-12-24T01:13:21.217Z,4.45
2022-12-24T01:16:04.433Z,4.60
2022-12-24T01:18:47.232Z,4.75
2022-12-24T01:21:29.838Z,5.15
2022-12-24T01:24:14.874Z,4.57
2022-12-24T01:26:57.546Z,4.90
2022-12-24T01:29:41.556Z,5.00
2022-12-24T01:32:24.180Z,4.95
2022-12-24T01:35:07.090Z,4.63
2022-12-24T01:37:49.832Z,5.43
2022-12-24T01:40:46.361Z,4.70
2022-12-24T01:43:30.387Z,5.22
2022-12-24T01:46:17.477Z,5.18
2022-12-24T01:49:02.911Z,4.55
2022-12-24T01:51:47.042Z,4.78
2022-12-24T01:54:31.351Z,4.80
2022-12-24T01:57:17.044Z,5.80
2022-12-24T02:00:01.771Z,5.00
2022-12-24T02:02:49.649Z,5.05
2022-12-24T02:05:34.566Z,4.60
2022-12-24T02:08:18.358Z,5.18
2022-12-24T02:11:00.943Z,5.32
2022-12-24T02:13:45.081Z,5.38
2022-12-24T02:16:34.147Z,4.90
2022-12-24T02:19:27.666Z,5.25
2022-12-24T02:22:14.176Z,4.97
2022-12-24T02:25:18.458Z,4.72
2022-12-24T02:28:03.051Z,5.10
2022-12-24T02:30:49.891Z,4.90
2022-12-24T02:33:36.327Z,4.93
2022-12-24T02:36:21.851Z,5.10
2022-12-24T02:39:06.193Z,4.72
2022-12-24T02:42:09.325Z,4.60
2022-12-24T02:44:55.377Z,4.95
2022-12-24T02:47:40.290Z,5.20
2022-12-24T02:50:22.901Z,5.10
2022-12-24T02:53:06.845Z,4.95
2022-12-24T02:55:54.795Z,5.18
2022-12-24T02:58:43.839Z,4.82
2022-12-24T03:01:30.550Z,5.15
2022-12-24T03:04:21.173Z,5.15
2022-12-24T03:07:07.148Z,4.70
2022-12-24T03:09:55.640Z,4.78
2022-12-24T03:12:40.592Z,4.65
2022-12-24T03:15:25.227Z,4.28
2022-12-24T03:18:09.564Z,4.30
2022-12-24T03:20:55.489Z,4.45
2022-12-24T03:23:38.139Z,3.95
2022-12-24T03:26:21.161Z,4.43
2022-12-24T03:29:05.575Z,4.32
2022-12-24T03:31:49.068Z,4.00
2022-12-24T03:34:31.710Z,4.15
2022-12-24T03:37:15.634Z,3.80
2022-12-24T03:39:58.801Z,4.00
2022-12-24T03:42:41.452Z,3.65
2022-12-24T03:45:24.235Z,3.90
2022-12-24T03:48:07.088Z,3.63
2022-12-24T03:50:49.638Z,3.80
2022-12-24T03:53:33.559Z,3.58
2022-12-24T03:56:16.907Z,4.13
2022-12-24T03:58:59.518Z,3.88
2022-12-24T04:01:42.299Z,3.60
2022-12-24T04:04:24.997Z,3.63
2022-12-24T04:07:07.684Z,3.67
2022-12-24T04:09:51.784Z,4.05
2022-12-24T04:12:34.335Z,3.90
2022-12-24T04:15:16.978Z,3.85
2022-12-24T04:17:59.543Z,3.20
2022-12-24T04:20:42.163Z,3.33
2022-12-24T04:23:25.225Z,3.70
2022-12-24T04:26:10.323Z,3.90
2022-12-24T04:28:52.930Z,3.50
2022-12-24T04:31:35.548Z,3.78
2022-12-24T04:34:18.168Z,3.40
2022-12-24T04:37:00.762Z,3.70
2022-12-24T04:39:43.366Z,3.50
2022-12-24T04:42:27.291Z,3.00
2022-12-24T04:45:10.456Z,3.22
2022-12-24T04:47:53.031Z,3.30
2022-12-24T04:50:35.650Z,3.40
2022-12-24T04:53:18.227Z,3.15
2022-12-24T04:56:01.120Z,3.35
2022-12-24T04:58:45.344Z,3.75
2022-12-24T05:01:29.057Z,3.33
2022-12-24T05:04:12.291Z,3.00
2022-12-24T05:06:54.867Z,2.83
2022-12-24T05:09:37.496Z,3.28
2022-12-24T05:12:20.355Z,2.80
2022-12-24T05:15:04.378Z,2.75
2022-12-24T05:17:46.930Z,3.50
2022-12-24T05:20:29.625Z,3.28
2022-12-24T05:23:33.577Z,3.13
2022-12-24T05:26:25.699Z,3.15
2022-12-24T05:29:08.575Z,3.25
2022-12-24T05:31:52.670Z,3.60
2022-12-24T05:34:35.340Z,3.03
2022-12-24T05:37:17.922Z,3.00
2022-12-24T05:40:00.487Z,3.70
2022-12-24T05:42:43.035Z,3.05
2022-12-24T05:45:25.662Z,3.15
2022-12-24T05:48:09.628Z,3.20
2022-12-24T05:50:52.228Z,2.75
2022-12-24T05:53:34.842Z,3.22
2022-12-24T05:56:18.781Z,3.22
2022-12-24T05:59:01.450Z,3.10
2022-12-24T06:01:47.153Z,2.88
2022-12-24T06:04:31.266Z,3.30
2022-12-24T06:07:13.878Z,2.72
2022-12-24T06:09:56.466Z,2.90
2022-12-24T06:12:39.115Z,3.22
2022-12-24T06:15:24.159Z,2.70
2022-12-24T06:18:06.983Z,2.90
2022-12-24T06:20:52.797Z,3.17
2022-12-24T06:23:36.918Z,2.92
2022-12-24T06:26:20.831Z,3.30
2022-12-24T06:29:03.625Z,3.13
2022-12-24T06:31:46.329Z,3.00
2022-12-24T06:34:29.016Z,3.03
2022-12-24T06:37:18.416Z,3.05
2022-12-24T06:40:01.127Z,3.33
2022-12-24T06:42:43.716Z,2.60
2022-12-24T06:45:26.388Z,2.60
2022-12-24T06:48:09.025Z,2.50
2022-12-24T06:50:52.067Z,2.67
2022-12-24T06:53:35.977Z,2.70
2022-12-24T06:56:19.303Z,3.08
2022-12-24T06:59:05.464Z,2.55
2022-12-24T07:01:49.302Z,2.60
2022-12-24T07:04:32.762Z,2.78
2022-12-24T07:07:16.301Z,2.25
2022-12-24T07:10:00.881Z,2.50
2022-12-24T07:12:43.798Z,2.60
2022-12-24T07:15:26.346Z,2.10
2022-12-24T07:18:08.974Z,2.05
2022-12-24T07:20:51.534Z,2.08
2022-12-24T07:23:34.329Z,2.17
2022-12-24T07:26:18.318Z,1.90
2022-12-24T07:29:00.946Z,2.05
2022-12-24T07:31:43.739Z,1.60
2022-12-24T07:34:26.389Z,2.17
2022-12-24T07:37:09.064Z,1.67
2022-12-24T07:39:51.718Z,1.90
2022-12-24T07:42:35.691Z,1.98
2022-12-24T07:45:18.372Z,1.92
2022-12-24T07:48:00.974Z,2.03
2022-12-24T07:50:44.180Z,1.70
2022-12-24T07:53:27.869Z,1.70
2022-12-24T07:56:12.908Z,1.77
2022-12-24T07:58:57.252Z,1.63
2022-12-24T08:01:39.974Z,1.77
2022-12-24T08:04:22.672Z,1.60
2022-12-24T08:07:05.551Z,1.63
2022-12-24T08:09:48.345Z,1.73
2022-12-24T08:12:30.928Z,1.50
2022-12-24T08:15:14.957Z,1.80
2022-12-24T08:17:57.562Z,2.25
2022-12-24T08:20:40.637Z,1.73
2022-12-24T08:23:23.306Z,1.90
2022-12-24T08:26:08.255Z,2.03
2022-12-24T08:28:50.892Z,1.70
2022-12-24T08:31:36.792Z,1.88
2022-12-24T08:34:19.478Z,2.00
2022-12-24T08:37:02.096Z,1.95
2022-12-24T08:39:44.717Z,1.80
2022-12-24T08:42:27.359Z,1.65
2022-12-24T08:45:11.480Z,2.22
2022-12-24T08:47:55.468Z,2.10
2022-12-24T08:50:39.844Z,1.92
2022-12-24T08:53:22.527Z,1.70
2022-12-24T08:56:05.728Z,2.00
2022-12-24T08:58:49.787Z,1.75
2022-12-24T09:01:32.668Z,1.95
2022-12-24T09:04:16.743Z,2.15
2022-12-24T09:06:59.450Z,1.90
2022-12-24T09:09:42.058Z,1.90
2022-12-24T09:12:24.651Z,1.60
2022-12-24T09:15:08.277Z,1.60
2022-12-24T09:17:51.146Z,1.83
2022-12-24T09:20:35.140Z,1.77
2022-12-24T09:23:17.838Z,1.83
2022-12-24T09:26:00.442Z,1.48
2022-12-24T09:28:43.141Z,2.00
2022-12-24T09:31:25.959Z,1.73
2022-12-24T09:34:08.661Z,1.77
2022-12-24T09:36:54.224Z,1.60
2022-12-24T09:39:36.844Z,1.60
2022-12-24T09:42:23.024Z,1.92
2022-12-24T09:45:09.140Z,1.50
2022-12-24T09:47:53.806Z,2.00
2022-12-24T09:50:40.880Z,1.80
2022-12-24T09:53:27.529Z,1.90
2022-12-24T09:56:13.778Z,1.98
2022-12-24T09:58:59.593Z,2.13
2022-12-24T10:01:42.377Z,2.00
2022-12-24T10:04:27.722Z,2.40
2022-12-24T10:07:13.871Z,1.98
2022-12-24T10:10:02.741Z,2.30
2022-12-24T10:12:50.138Z,2.53
2022-12-24T10:15:36.465Z,2.10
2022-12-24T10:18:24.400Z,2.58
2022-12-24T10:21:11.524Z,2.40
2022-12-24T10:23:56.137Z,2.55
2022-12-24T10:26:44.720Z,2.30
2022-12-24T10:29:28.944Z,2.50
2022-12-24T10:32:17.617Z,2.22
2022-12-24T10:35:02.213Z,2.40
2022-12-24T10:37:46.113Z,2.53
2022-12-24T10:40:33.208Z,2.97
2022-12-24T10:43:18.288Z,2.60
2022-12-24T10:46:02.784Z,2.70
2022-12-24T10:48:50.900Z,2.80
2022-12-24T10:51:38.600Z,2.80
2022-12-24T10:54:27.058Z,2.40
2022-12-24T10:57:24.346Z,2.65
2022-12-24T11:00:19.052Z,2.78
2022-12-24T11:03:09.099Z,2.75
2022-12-24T11:06:02.045Z,3.28
2022-12-24T11:08:45.559Z,3.17
2022-12-24T11:11:35.542Z,2.70
2022-12-24T11:14:19.248Z,2.88
2022-12-24T11:17:03.429Z,2.80
2022-12-24T11:19:48.630Z,2.80
2022-12-24T11:22:32.840Z,2.80
2022-12-24T11:25:20.791Z,2.85
2022-12-24T11:28:11.738Z,2.95
2022-12-24T11:30:57.155Z,3.10
2022-12-24T11:33:48.519Z,2.95
2022-12-24T11:36:31.168Z,3.00
2022-12-24T11:39:19.745Z,3.08
2022-12-24T11:42:02.356Z,2.88
2022-12-24T11:44:48.547Z,2.55
2022-12-24T11:47:34.781Z,2.88
2022-12-24T11:50:27.086Z,2.70
2022-12-24T11:53:13.896Z,2.83
2022-12-24T11:55:57.403Z,2.90
2022-12-24T11:58:42.582Z,2.90
2022-12-24T12:01:27.046Z,3.17
2022-12-24T12:04:13.929Z,2.95
2022-12-24T12:07:00.278Z,2.90
2022-12-24T12:09:44.691Z,3.30
2022-12-24T12:12:28.349Z,2.72
2022-12-24T12:15:13.441Z,3.00
2022-12-24T12:17:57.855Z,3.03
2022-12-24T12:20:42.372Z,3.05
2022-12-24T12:23:29.205Z,3.08
2022-12-24T12:26:13.942Z,2.88
2022-12-24T12:28:58.938Z,3.25
2022-12-24T12:31:43.596Z,3.35
2022-12-24T12:34:29.725Z,3.40
2022-12-24T12:37:15.141Z,3.33
2022-12-24T12:39:59.315Z,3.70
2022-12-24T12:42:46.700Z,3.40
2022-12-24T12:45:40.363Z,3.70
2022-12-24T12:48:30.744Z,3.85
2022-12-24T12:51:16.474Z,3.58
2022-12-24T12:54:07.707Z,3.42
2022-12-24T12:56:53.188Z,3.40
2022-12-24T12:59:37.890Z,3.33
2022-12-24T13:02:27.710Z,3.63
2022-12-24T13:05:29.126Z,3.95
2022-12-24T13:08:21.591Z,3.83
2022-12-24T13:11:17.856Z,3.40
2022-12-24T13:14:21.317Z,3.33
2022-12-24T13:17:20.700Z,3.55
2022-12-24T13:20:18.429Z,4.15
2022-12-24T13:23:02.671Z,3.40
2022-12-24T13:25:46.521Z,4.10
2022-12-24T13:28:33.962Z,4.45
2022-12-24T13:31:24.588Z,4.10
2022-12-24T13:34:28.830Z,3.72
2022-12-24T13:37:22.245Z,4.20
2022-12-24T13:40:15.968Z,3.63
2022-12-24T13:43:09.994Z,3.90
2022-12-24T13:45:52.866Z,4.10
2022-12-24T13:48:35.707Z,3.90
2022-12-24T13:51:20.132Z,4.10
2022-12-24T13:54:04.185Z,4.47
2022-12-24T13:56:47.122Z,4.40
2022-12-24T13:59:38.547Z,4.20
2022-12-24T14:02:22.699Z,4.15
2022-12-24T14:05:08.598Z,4.20
2022-12-24T14:07:51.581Z,4.35
2022-12-24T14:10:40.078Z,4.38
2022-12-24T14:13:41.464Z,4.72
2022-12-24T14:16:25.635Z,5.43
2022-12-24T14:19:12.670Z,5.43
2022-12-24T14:22:02.221Z,5.22
2022-12-24T14:24:47.249Z,5.63
2022-12-24T14:27:33.844Z,5.32
2022-12-24T14:30:18.683Z,5.25
2022-12-24T14:33:01.351Z,4.97
2022-12-24T14:35:44.136Z,5.07
2022-12-24T14:38:27.375Z,4.80
2022-12-24T14:41:15.738Z,5.00
2022-12-24T14:44:06.072Z,4.60
2022-12-24T14:46:49.967Z,5.18
2022-12-24T14:49:41.148Z,4.47
2022-12-24T14:53:03.404Z,4.80
2022-12-24T14:55:32.723Z,4.97
2022-12-24T14:58:20.510Z,4.72
2022-12-24T15:01:19.023Z,4.60
2022-12-24T15:04:02.916Z,5.00
2022-12-24T15:06:49.386Z,4.90
2022-12-24T15:09:33.950Z,4.97
2022-12-24T15:12:16.574Z,4.95
2022-12-24T15:14:59.310Z,4.00
2022-12-24T15:17:44.080Z,5.00
2022-12-24T15:20:28.174Z,5.22
2022-12-24T15:23:18.878Z,4.88
2022-12-24T15:26:17.123Z,4.18
2022-12-24T15:29:03.603Z,4.90
2022-12-24T15:31:46.615Z,4.47
2022-12-24T15:34:36.131Z,4.47
2022-12-24T15:37:20.658Z,4.80
2022-12-24T15:40:06.208Z,4.63
2022-12-24T15:42:48.942Z,4.38
2022-12-24T15:45:34.469Z,4.55
2022-12-24T15:48:21.137Z,4.50
2022-12-24T15:51:06.321Z,4.35
2022-12-24T15:53:49.200Z,4.57
2022-12-24T15:56:33.246Z,4.80
2022-12-24T15:59:24.233Z,4.60
2022-12-24T16:02:22.717Z,4.80
2022-12-24T16:05:28.820Z,4.78
2022-12-24T16:08:26.048Z,4.78
2022-12-24T16:11:10.808Z,5.45
2022-12-24T16:13:58.594Z,4.70
2022-12-24T16:16:42.104Z,5.05
2022-12-24T16:19:25.350Z,5.60
2022-12-24T16:22:22.181Z,4.50
2022-12-24T16:25:20.913Z,5.05
2022-12-24T16:28:11.495Z,5.03
2022-12-24T16:30:55.873Z,4.30
2022-12-24T16:33:38.513Z,4.90
2022-12-24T16:36:21.100Z,4.50
2022-12-24T16:39:21.180Z,4.63
2022-12-24T16:42:22.478Z,4.40
2022-12-24T16:45:07.376Z,3.75
2022-12-24T16:47:50.908Z,4.20
2022-12-24T16:50:33.743Z,4.18
2022-12-24T16:53:17.924Z,3.25
2022-12-24T16:56:00.785Z,3.03
2022-12-24T16:58:43.364Z,2.97
2022-12-24T17:01:27.395Z,2.53
2022-12-24T17:04:10.173Z,2.88
2022-12-24T17:06:52.913Z,2.47
2022-12-24T17:09:35.671Z,2.30
2022-12-24T17:12:18.306Z,2.17
2022-12-24T17:15:00.896Z,2.13
2022-12-24T17:17:44.871Z,2.38
2022-12-24T17:20:27.485Z,2.35
2022-12-24T17:23:10.172Z,1.77
2022-12-24T17:25:52.849Z,2.00
2022-12-24T17:28:35.576Z,2.10
2022-12-24T17:31:18.271Z,2.22
2022-12-24T17:34:02.684Z,2.10
2022-12-24T17:36:45.613Z,2.15
2022-12-24T17:39:28.305Z,2.42
2022-12-24T17:42:10.913Z,1.90
2022-12-24T17:44:53.557Z,2.20
2022-12-24T17:47:36.138Z,2.50
2022-12-24T17:50:20.318Z,2.38
2022-12-24T17:53:02.904Z,2.20
2022-12-24T17:55:45.665Z,1.88
2022-12-24T17:58:28.476Z,2.25
2022-12-24T18:01:11.767Z,1.70
2022-12-24T18:03:54.479Z,2.13
2022-12-24T18:06:41.988Z,1.75
2022-12-24T18:09:28.279Z,1.92
2022-12-24T18:12:10.889Z,1.88
2022-12-24T18:14:53.484Z,2.20
2022-12-24T18:17:36.078Z,2.03
2022-12-24T18:20:18.735Z,1.90
2022-12-24T18:23:03.166Z,1.70
2022-12-24T18:25:45.817Z,1.98
2022-12-24T18:28:28.417Z,1.88
2022-12-24T18:31:12.669Z,2.00
2022-12-24T18:33:55.824Z,1.95
2022-12-24T18:36:38.798Z,2.00
2022-12-24T18:39:22.854Z,1.92
2022-12-24T18:42:05.587Z,2.38
2022-12-24T18:44:48.180Z,2.20
2022-12-24T18:47:30.761Z,2.17
2022-12-24T18:50:13.350Z,2.03
2022-12-24T18:52:55.977Z,1.73
2022-12-24T18:55:40.105Z,1.98
2022-12-24T18:58:22.745Z,1.83
2022-12-24T19:01:10.648Z,1.67
2022-12-24T19:03:53.861Z,1.90
2022-12-24T19:06:36.542Z,2.20
2022-12-24T19:09:19.276Z,2.08
2022-12-24T19:12:04.283Z,1.88
2022-12-24T19:14:46.919Z,2.15
2022-12-24T19:17:29.768Z,1.90
2022-12-24T19:20:12.854Z,1.73
2022-12-24T19:22:55.484Z,2.15
2022-12-24T19:25:38.118Z,2.08
2022-12-24T19:28:25.827Z,2.20
2022-12-24T19:31:10.189Z,2.00
2022-12-24T19:33:53.793Z,1.80
2022-12-24T19:36:36.491Z,1.83
2022-12-24T19:39:19.116Z,1.60
2022-12-24T19:42:01.961Z,1.67
2022-12-24T19:44:45.879Z,2.15
2022-12-24T19:47:28.496Z,1.65
2022-12-24T19:50:11.674Z,1.73
2022-12-24T19:52:54.478Z,1.77
2022-12-24T19:55:38.064Z,1.75
2022-12-24T19:58:20.752Z,1.83
2022-12-24T20:01:14.446Z,1.98
2022-12-24T20:03:58.095Z,1.65
2022-12-24T20:06:40.809Z,1.88
2022-12-24T20:09:23.666Z,1.80
2022-12-24T20:12:08.221Z,1.80
2022-12-24T20:14:50.897Z,2.33
2022-12-24T20:17:34.947Z,1.70
2022-12-24T20:20:17.557Z,2.00
2022-12-24T20:23:00.665Z,1.95
2022-12-24T20:25:43.264Z,1.70
2022-12-24T20:28:26.201Z,1.58
2022-12-24T20:31:12.662Z,1.48
2022-12-24T20:33:56.800Z,1.90
2022-12-24T20:36:39.528Z,1.65
2022-12-24T20:39:22.451Z,1.90
2022-12-24T20:42:05.239Z,2.20
2022-12-24T20:44:49.205Z,2.15
2022-12-24T20:47:32.138Z,2.13
2022-12-24T20:50:16.546Z,2.10
2022-12-24T20:52:59.177Z,2.00
2022-12-24T20:55:41.952Z,2.35
2022-12-24T20:58:24.558Z,2.10
2022-12-24T21:01:10.827Z,2.15
2022-12-24T21:03:53.851Z,2.13
2022-12-24T21:06:38.180Z,2.20
2022-12-24T21:09:20.836Z,2.30
2022-12-24T21:12:22.436Z,2.13
2022-12-24T21:15:05.481Z,2.55
2022-12-24T21:17:48.119Z,2.15
2022-12-24T21:20:31.295Z,2.40
2022-12-24T21:23:15.219Z,2.28
2022-12-24T21:25:58.593Z,2.53
2022-12-24T21:28:42.570Z,2.13
2022-12-24T21:31:25.294Z,2.42
2022-12-24T21:34:07.942Z,2.17
2022-12-24T21:36:50.545Z,2.53
2022-12-24T21:39:34.705Z,2.50
2022-12-24T21:42:17.348Z,2.40
2022-12-24T21:45:00.039Z,2.60
2022-12-24T21:47:44.593Z,2.53
2022-12-24T21:50:44.735Z,2.30
2022-12-24T21:53:44.759Z,2.38
2022-12-24T21:56:28.935Z,2.58
2022-12-24T21:59:10.587Z,2.53
2022-12-24T22:01:53.415Z,3.20
2022-12-24T22:04:36.215Z,2.55
2022-12-24T22:07:40.183Z,2.58
2022-12-24T22:10:40.099Z,3.00
2022-12-24T22:13:24.422Z,2.50
2022-12-24T22:16:07.212Z,2.45
2022-12-24T22:18:49.859Z,2.00
2022-12-24T22:21:32.547Z,2.50
2022-12-24T22:24:15.173Z,2.20
2022-12-24T22:26:58.280Z,2.00
2022-12-24T22:29:42.284Z,2.13
2022-12-24T22:32:25.493Z,2.55
2022-12-24T22:35:08.339Z,3.22
2022-12-24T22:37:56.034Z,2.08
2022-12-24T22:40:42.475Z,2.30
2022-12-24T22:43:25.609Z,3.15
2022-12-24T22:46:10.363Z,2.38
2022-12-24T22:48:52.966Z,1.88
2022-12-24T22:51:35.614Z,2.47
2022-12-24T22:54:18.411Z,2.03
2022-12-24T22:57:01.073Z,2.65
2022-12-24T22:59:43.792Z,2.55
2022-12-24T23:02:28.704Z,2.08
2022-12-24T23:05:14.158Z,2.45
2022-12-24T23:07:56.831Z,2.60
2022-12-24T23:10:39.677Z,2.63
2022-12-24T23:13:44.923Z,2.70
2022-12-24T23:16:28.058Z,2.53
2022-12-24T23:19:12.653Z,2.70
2022-12-24T23:21:55.232Z,2.78
2022-12-24T23:24:38.014Z,3.17
2022-12-24T23:27:20.609Z,3.13
2022-12-24T23:30:03.588Z,2.95
2022-12-24T23:32:46.203Z,2.65
2022-12-24T23:35:30.199Z,2.67
2022-12-24T23:38:12.786Z,2.80
2022-12-24T23:40:55.949Z,2.75
2022-12-24T23:43:38.672Z,2.55
2022-12-24T23:46:21.775Z,2.10
2022-12-24T23:49:04.413Z,2.63
2022-12-24T23:51:48.392Z,2.17
2022-12-24T23:54:31.093Z,3.33
2022-12-24T23:57:13.707Z,2.72
2022-12-24T23:59:56.393Z,2.45
